createdAt,value
2023-03-22T00:03:49.419Z,29.87
2023-03-22T00:08:53.755Z,32.33
2023-03-22T00:13:59.104Z,31.23
2023-03-22T00:19:02.306Z,33.10
2023-03-22T00:24:05.653Z,31.27
2023-03-22T00:29:08.884Z,31.40
2023-03-22T00:34:12.436Z,30.53
2023-03-22T00:39:16.048Z,31.73
2023-03-22T00:44:19.216Z,29.37
2023-03-22T00:49:22.317Z,31.50
2023-03-22T00:54:25.627Z,30.70
2023-03-22T00:59:28.754Z,30.70
2023-03-22T01:04:32.803Z,31.13
2023-03-22T01:09:36.052Z,31.90
2023-03-22T01:14:39.823Z,32.43
2023-03-22T01:19:43.000Z,31.93
2023-03-22T01:24:46.298Z,30.83
2023-03-22T01:29:50.146Z,29.87
2023-03-22T01:34:53.387Z,33.53
2023-03-22T01:39:57.092Z,31.63
2023-03-22T01:45:15.784Z,34.37
2023-03-22T01:50:19.982Z,31.20
2023-03-22T01:55:24.737Z,32.13
2023-03-22T02:00:28.225Z,30.60
2023-03-22T02:05:32.026Z,30.67
2023-03-22T02:10:35.285Z,30.53
2023-03-22T02:15:49.313Z,29.90
2023-03-22T02:21:44.687Z,31.17
2023-03-22T02:27:16.656Z,31.57
2023-03-22T02:32:19.761Z,30.50
2023-03-22T02:37:35.007Z,33.77
2023-03-22T02:42:59.994Z,32.17
2023-03-22T02:48:22.234Z,30.67
2023-03-22T02:53:43.247Z,30.67
2023-03-22T02:58:54.644Z,31.80
2023-03-22T03:04:02.754Z,32.03
2023-03-22T03:09:06.794Z,32.60
2023-03-22T03:14:21.616Z,32.80
2023-03-22T03:19:34.414Z,33.20
2023-03-22T03:24:46.586Z,32.30
2023-03-22T03:29:53.329Z,35.23
2023-03-22T03:35:32.856Z,35.17
2023-03-22T03:40:53.903Z,33.90
2023-03-22T03:45:57.274Z,36.57
2023-03-22T03:51:02.400Z,34.87
2023-03-22T03:56:06.137Z,36.73
2023-03-22T04:01:09.306Z,36.57
2023-03-22T04:06:12.442Z,36.37
2023-03-22T04:11:15.782Z,36.47
2023-03-22T04:16:18.931Z,37.17
2023-03-22T04:21:22.084Z,37.20
2023-03-22T04:26:26.656Z,37.37
2023-03-22T04:31:34.437Z,36.43
2023-03-22T04:36:39.936Z,36.07
2023-03-22T04:41:42.975Z,37.20
2023-03-22T04:46:46.079Z,37.83
2023-03-22T04:51:49.265Z,34.07
2023-03-22T04:56:52.463Z,36.00
2023-03-22T05:01:55.764Z,36.10
2023-03-22T05:06:58.904Z,35.83
2023-03-22T05:12:02.289Z,40.47
2023-03-22T05:17:05.478Z,35.80
2023-03-22T05:22:08.613Z,36.93
2023-03-22T05:27:11.772Z,38.40
2023-03-22T05:32:14.864Z,37.43
2023-03-22T05:37:21.528Z,37.57
2023-03-22T05:42:24.687Z,39.63
2023-03-22T05:47:27.812Z,39.40
2023-03-22T05:52:30.864Z,39.37
2023-03-22T05:57:34.301Z,38.03
2023-03-22T06:02:37.489Z,40.53
2023-03-22T06:07:41.638Z,38.23
2023-03-22T06:12:44.924Z,40.20
2023-03-22T06:17:48.403Z,39.30
2023-03-22T06:22:51.587Z,40.33
2023-03-22T06:27:54.688Z,39.80
2023-03-22T06:33:00.872Z,40.73
2023-03-22T06:38:04.279Z,40.67
2023-03-22T06:43:07.582Z,41.77
2023-03-22T06:48:10.591Z,39.43
2023-03-22T06:53:13.758Z,38.20
2023-03-22T06:58:16.883Z,42.57
2023-03-22T07:03:20.049Z,41.27
2023-03-22T07:08:23.305Z,41.07
2023-03-22T07:13:26.640Z,41.27
2023-03-22T07:18:32.078Z,41.20
2023-03-22T07:23:35.378Z,39.57
2023-03-22T07:28:39.588Z,40.10
2023-03-22T07:33:43.159Z,38.33
2023-03-22T07:38:46.199Z,39.60
2023-03-22T07:43:56.628Z,36.27
2023-03-22T07:49:03.278Z,37.70
2023-03-22T07:54:07.789Z,34.80
2023-03-22T07:59:11.478Z,34.43
2023-03-22T08:04:14.604Z,34.17
2023-03-22T08:09:18.524Z,31.33
2023-03-22T08:14:30.523Z,31.07
2023-03-22T08:19:37.195Z,27.63
2023-03-22T08:24:40.321Z,25.87
2023-03-22T08:29:43.504Z,25.90
2023-03-22T08:34:47.692Z,24.67
2023-03-22T08:39:51.015Z,24.80
2023-03-22T08:44:54.163Z,23.80
2023-03-22T08:49:57.496Z,24.13
2023-03-22T08:55:01.436Z,25.73
2023-03-22T09:00:07.140Z,25.47
2023-03-22T09:05:10.891Z,23.90
2023-03-22T09:10:14.160Z,23.90
2023-03-22T09:15:17.319Z,24.13
2023-03-22T09:20:25.557Z,26.23
2023-03-22T09:25:28.608Z,25.73
2023-03-22T09:30:32.087Z,23.93
2023-03-22T09:35:35.254Z,23.47
2023-03-22T09:40:47.088Z,24.87
2023-03-22T09:45:52.386Z,24.07
2023-03-22T09:50:56.036Z,23.53
2023-03-22T09:56:32.046Z,24.70
2023-03-22T10:01:48.131Z,21.53
2023-03-22T10:07:07.320Z,20.73
2023-03-22T10:12:28.596Z,19.50
2023-03-22T10:17:32.275Z,19.67
2023-03-22T10:22:41.354Z,19.30
2023-03-22T10:27:47.050Z,18.23
2023-03-22T10:33:01.978Z,17.27
2023-03-22T10:38:09.798Z,15.97
2023-03-22T10:43:28.000Z,16.57
2023-03-22T10:48:42.448Z,17.80
2023-03-22T10:53:49.505Z,17.20
2023-03-22T10:58:53.128Z,16.80
2023-03-22T11:04:17.150Z,16.63
2023-03-22T11:09:22.265Z,17.43
2023-03-22T11:14:35.680Z,16.53
2023-03-22T11:19:40.502Z,16.90
2023-03-22T11:24:46.988Z,16.33
2023-03-22T11:29:53.098Z,15.93
2023-03-22T11:35:05.214Z,15.40
2023-03-22T11:40:14.292Z,15.73
2023-03-22T11:45:31.421Z,15.67
2023-03-22T11:50:38.231Z,15.43
2023-03-22T11:55:43.122Z,14.93
2023-03-22T12:00:48.472Z,16.53
2023-03-22T12:05:53.025Z,15.63
2023-03-22T13:24:21.238Z,12.50
2023-03-22T13:29:50.085Z,12.23
2023-03-22T13:34:54.841Z,12.00
2023-03-22T13:40:32.208Z,11.90
2023-03-22T13:45:35.862Z,12.23
2023-03-22T13:50:40.143Z,11.90
2023-03-22T13:55:59.932Z,11.53
2023-03-22T14:01:13.589Z,12.10
2023-03-22T14:18:37.529Z,10.83
